Cisne Branco — PWCB — position and weather

sailwx.info

Track history (hours):
 
Tides and Currents Weather Stations Pressure Air Temp Water Temp Dewpoint Dewpoint Depression Visibility Wind Speed Wind Dir Waves Ship Positions

Cisne Branco (Brazil)

Last reported at 2018-Oct-27 12:30 UTC. Time now 2018-Dec-18 10:29 UTC.
Position S 22°52' W 043°08'.
Warning: this ship's position is 51 days out of date.

Length 78 m; draft 4.8 m.

MMSI: 710428000.

Date/timePositionNaut miles runAvg speedWind from/ knotsBaromVisibWave heightAir tempDewpointWater temp
2018-Oct-27 12:30S 22°52' W 043°08'1 1.3
2018-Oct-27 12:03S 22°52' W 043°09'0 2.0
2018-Oct-27 12:00S 22°52' W 043°09'3 5.6
2018-Oct-27 11:30S 22°54' W 043°09'0 0.1
2018-Oct-27 11:03S 22°54' W 043°09'0 0.1
2018-Oct-27 11:00S 22°54' W 043°09'0 0.0
2018-Oct-27 10:30S 22°54' W 043°09'0 0.0
2018-Oct-27 10:03S 22°54' W 043°09'0 0.1
2018-Oct-27 10:00S 22°54' W 043°09'0 0.0
2018-Oct-27 09:30S 22°54' W 043°09'0 0.3
2018-Oct-27 09:03S 22°55' W 043°09'0 5.0
2018-Oct-27 09:00S 22°55' W 043°09'2 4.9
2018-Oct-27 08:30S 22°57' W 043°08'3 5.0
2018-Oct-27 07:56S 22°60' W 043°08'9 5.0
2018-Oct-27 06:12S 23°05' W 043°00'1 4.1
2018-Oct-27 06:03S 23°05' W 043°01'0 4.3
2018-Oct-27 05:57S 23°05' W 043°01'2 4.1
2018-Oct-27 05:30S 23°05' W 043°03'2 3.8
2018-Oct-27 05:04S 23°05' W 043°05'2 5.6
2018-Oct-27 04:43S 23°05' W 043°03'  
Track history (hours):
 
Tides and Currents Weather Stations Pressure Air Temp Water Temp Dewpoint Dewpoint Depression Visibility Wind Speed Wind Dir Waves Ship Positions

Cisne Branco (Brazil)

Last reported at 2018-Oct-27 12:30 UTC. Time now 2018-Dec-18 10:29 UTC.
Position S 22°52' W 043°08'.
Warning: this ship's position is 51 days out of date.

Length 78 m; draft 4.8 m.

MMSI: 710428000.

Date/timePositionNaut miles runAvg speedWind from/ knotsBaromVisibWave heightAir tempDewpointWater temp
2018-Oct-27 12:30S 22°52' W 043°08'1 1.3
2018-Oct-27 12:03S 22°52' W 043°09'0 2.0
2018-Oct-27 12:00S 22°52' W 043°09'3 5.6
2018-Oct-27 11:30S 22°54' W 043°09'0 0.1
2018-Oct-27 11:03S 22°54' W 043°09'0 0.1
2018-Oct-27 11:00S 22°54' W 043°09'0 0.0
2018-Oct-27 10:30S 22°54' W 043°09'0 0.0
2018-Oct-27 10:03S 22°54' W 043°09'0 0.1
2018-Oct-27 10:00S 22°54' W 043°09'0 0.0
2018-Oct-27 09:30S 22°54' W 043°09'0 0.3
2018-Oct-27 09:03S 22°55' W 043°09'0 5.0
2018-Oct-27 09:00S 22°55' W 043°09'2 4.9
2018-Oct-27 08:30S 22°57' W 043°08'3 5.0
2018-Oct-27 07:56S 22°60' W 043°08'9 5.0
2018-Oct-27 06:12S 23°05' W 043°00'1 4.1
2018-Oct-27 06:03S 23°05' W 043°01'0 4.3
2018-Oct-27 05:57S 23°05' W 043°01'2 4.1
2018-Oct-27 05:30S 23°05' W 043°03'2 3.8
2018-Oct-27 05:04S 23°05' W 043°05'2 5.6
2018-Oct-27 04:43S 23°05' W 043°03'  

Dump ship's entire track history